createdAt,value
2023-02-11T00:00:36.002Z,11.38
2023-02-11T00:05:29.490Z,13.93
2023-02-11T00:10:22.619Z,11.55
2023-02-11T00:15:15.538Z,10.38
2023-02-11T00:20:10.847Z,11.82
2023-02-11T00:25:03.497Z,10.35
2023-02-11T00:29:57.026Z,9.90
2023-02-11T00:34:53.126Z,8.32
2023-02-11T00:39:45.930Z,9.50
2023-02-11T00:44:39.369Z,8.65
2023-02-11T00:49:33.481Z,10.15
2023-02-11T00:54:28.419Z,9.00
2023-02-11T00:59:22.818Z,10.20
2023-02-11T01:04:15.967Z,10.63
2023-02-11T01:09:09.399Z,8.48
2023-02-11T01:14:03.078Z,7.75
2023-02-11T01:18:57.276Z,7.63
2023-02-11T01:23:50.417Z,9.38
2023-02-11T01:28:44.430Z,9.95
2023-02-11T01:33:37.325Z,11.18
2023-02-11T01:38:34.088Z,7.38
2023-02-11T01:43:28.477Z,8.52
2023-02-11T01:48:30.047Z,8.27
2023-02-11T01:53:42.550Z,8.48
2023-02-11T01:58:39.410Z,10.55
2023-02-11T02:03:37.259Z,6.55
2023-02-11T02:08:50.830Z,7.35
2023-02-11T02:13:44.184Z,9.15
2023-02-11T02:18:40.287Z,6.28
2023-02-11T02:23:50.527Z,5.88
2023-02-11T02:29:01.423Z,6.47
2023-02-11T02:38:55.768Z,6.93
2023-02-11T02:43:51.295Z,5.90
2023-02-11T02:48:45.487Z,6.95
2023-02-11T02:54:08.906Z,6.63
2023-02-11T02:59:21.963Z,9.02
2023-02-11T03:04:27.665Z,4.97
2023-02-11T03:09:43.673Z,6.93
2023-02-11T03:14:38.005Z,5.30
2023-02-11T03:19:42.103Z,6.28
2023-02-11T03:24:38.878Z,5.00
2023-02-11T03:29:43.535Z,6.70
2023-02-11T03:34:57.486Z,7.18
2023-02-11T03:40:04.139Z,5.18
2023-02-11T03:45:07.688Z,4.85
2023-02-11T03:50:03.431Z,6.50
2023-02-11T03:54:59.319Z,5.47
2023-02-11T03:59:56.477Z,4.65
2023-02-11T04:04:48.826Z,7.53
2023-02-11T04:09:41.612Z,3.95
2023-02-11T04:14:34.829Z,6.07
2023-02-11T04:19:28.502Z,4.47
2023-02-11T04:24:21.518Z,5.68
2023-02-11T04:29:14.953Z,5.68
2023-02-11T04:34:08.686Z,5.25
2023-02-11T04:39:02.090Z,5.40
2023-02-11T04:43:55.949Z,5.60
2023-02-11T04:48:48.344Z,4.40
2023-02-11T04:53:42.720Z,4.70
2023-02-11T04:58:36.156Z,3.85
2023-02-11T05:03:30.521Z,5.13
2023-02-11T05:08:23.224Z,3.13
2023-02-11T05:13:16.878Z,5.63
2023-02-11T05:18:09.262Z,3.88
2023-02-11T05:23:02.587Z,3.85
2023-02-11T05:27:55.943Z,4.68
2023-02-11T05:32:48.956Z,3.55
2023-02-11T05:37:43.116Z,3.13
2023-02-11T05:42:36.636Z,6.10
2023-02-11T05:47:29.886Z,6.10
2023-02-11T05:52:23.908Z,3.25
2023-02-11T05:57:18.275Z,5.05
2023-02-11T06:02:11.622Z,5.10
2023-02-11T06:07:04.610Z,5.68
2023-02-11T06:11:57.420Z,3.28
2023-02-11T06:16:50.749Z,3.42
2023-02-11T06:21:44.685Z,4.15
2023-02-11T06:26:38.378Z,5.05
2023-02-11T06:31:31.253Z,4.95
2023-02-11T06:36:23.492Z,4.38
2023-02-11T06:41:19.024Z,4.70
2023-02-11T06:46:12.890Z,2.70
2023-02-11T06:51:07.992Z,3.38
2023-02-11T06:56:06.939Z,8.40
2023-02-11T07:00:59.441Z,5.32
2023-02-11T07:05:52.975Z,7.32
2023-02-11T07:10:46.909Z,12.60
2023-02-11T07:15:39.002Z,12.82
2023-02-11T07:20:32.696Z,16.75
2023-02-11T07:25:25.758Z,10.80
2023-02-11T07:30:18.665Z,13.63
2023-02-11T07:35:12.138Z,14.98
2023-02-11T07:40:08.460Z,11.50
2023-02-11T07:45:00.893Z,12.43
2023-02-11T07:49:56.214Z,14.23
2023-02-11T07:54:49.113Z,12.82
2023-02-11T07:59:42.370Z,7.22
2023-02-11T08:04:35.547Z,8.10
2023-02-11T08:09:29.320Z,11.88
2023-02-11T08:14:22.715Z,6.20
2023-02-11T08:19:17.607Z,7.18
2023-02-11T08:24:10.634Z,7.05
2023-02-11T08:29:07.492Z,11.38
2023-02-11T08:34:02.618Z,8.63
2023-02-11T08:39:16.118Z,14.68
2023-02-11T08:44:13.871Z,17.92
2023-02-11T08:49:07.249Z,15.80
2023-02-11T08:54:00.838Z,14.32
2023-02-11T08:58:54.595Z,14.77
2023-02-11T09:03:47.162Z,10.93
2023-02-11T09:08:45.268Z,8.73
2023-02-11T09:13:42.377Z,13.35
2023-02-11T09:18:35.310Z,12.57
2023-02-11T09:23:28.906Z,14.25
2023-02-11T09:28:22.821Z,10.20
2023-02-11T09:33:16.030Z,12.55
2023-02-11T09:38:09.043Z,18.35
2023-02-11T09:43:12.014Z,11.70
2023-02-11T09:48:18.622Z,12.60
2023-02-11T09:53:29.230Z,10.73
2023-02-11T09:58:27.913Z,12.48
2023-02-11T10:03:38.487Z,9.98
2023-02-11T10:08:54.922Z,10.18
2023-02-11T10:14:23.432Z,12.32
2023-02-11T10:19:22.953Z,10.48
2023-02-11T10:24:18.096Z,10.60
2023-02-11T10:29:49.001Z,13.07
2023-02-11T10:34:43.370Z,9.77
2023-02-11T10:39:36.715Z,11.00
2023-02-11T10:44:59.366Z,11.00
2023-02-11T10:49:52.054Z,9.65
2023-02-11T10:55:03.943Z,8.75
2023-02-11T11:00:40.125Z,7.72
2023-02-11T11:05:50.049Z,8.18
2023-02-11T11:11:04.716Z,8.93
2023-02-11T11:16:15.426Z,9.55
2023-02-11T11:26:11.289Z,7.43
2023-02-11T11:31:06.418Z,7.88
2023-02-11T11:36:06.983Z,7.63
2023-02-11T11:41:15.504Z,9.27
2023-02-11T11:46:12.639Z,10.02
2023-02-11T11:51:11.500Z,7.05
2023-02-11T11:56:16.945Z,8.57
2023-02-11T12:01:46.078Z,9.40
2023-02-11T12:06:39.658Z,9.27
2023-02-11T12:11:54.144Z,11.13
2023-02-11T12:16:55.680Z,12.52
2023-02-11T12:21:57.235Z,265.90
2023-02-11T12:27:02.847Z,159.57
2023-02-11T12:32:28.643Z,135.85
2023-02-11T12:38:18.971Z,108.88
2023-02-11T12:43:35.813Z,93.47
2023-02-11T12:48:30.666Z,88.03
2023-02-11T12:53:42.148Z,79.25
2023-02-11T12:58:44.980Z,68.35
2023-02-11T13:03:56.346Z,72.53
2023-02-11T13:08:54.263Z,68.60
2023-02-11T13:13:49.501Z,62.92
2023-02-11T13:18:54.770Z,50.55
2023-02-11T13:24:20.371Z,49.47
2023-02-11T13:29:30.736Z,47.55
2023-02-11T13:34:42.315Z,48.45
2023-02-11T13:39:35.299Z,43.90
2023-02-11T13:44:28.838Z,43.05
2023-02-11T13:49:30.446Z,42.22
2023-02-11T13:54:52.821Z,36.65
2023-02-11T13:59:46.347Z,30.40
2023-02-11T14:05:20.321Z,33.83
2023-02-11T14:10:52.225Z,31.95
2023-02-11T14:15:46.963Z,32.95
2023-02-11T14:20:44.730Z,28.75
2023-02-11T14:25:42.645Z,28.52
2023-02-11T14:30:51.043Z,25.85
2023-02-11T14:35:58.732Z,31.90
2023-02-11T14:41:11.968Z,27.85
2023-02-11T14:46:06.145Z,24.25
2023-02-11T14:51:02.825Z,32.22
2023-02-11T14:55:56.386Z,27.90
2023-02-11T15:00:53.914Z,28.05
2023-02-11T15:05:47.065Z,30.83
2023-02-11T15:10:44.797Z,30.45
2023-02-11T15:15:41.148Z,29.15
2023-02-11T15:20:34.919Z,33.40
2023-02-11T15:25:28.739Z,29.15
2023-02-11T15:30:24.262Z,27.52
2023-02-11T15:35:17.446Z,26.90
2023-02-11T15:40:19.769Z,28.95
2023-02-11T15:45:15.399Z,23.60
2023-02-11T15:50:21.694Z,29.40
2023-02-11T15:55:21.016Z,27.52
2023-02-11T16:00:19.991Z,33.78
2023-02-11T16:05:32.093Z,26.95
2023-02-11T16:10:36.887Z,26.95
2023-02-11T16:15:35.044Z,25.08
2023-02-11T16:20:28.781Z,23.77
2023-02-11T16:25:23.258Z,25.60
2023-02-11T16:30:33.301Z,23.52
2023-02-11T16:35:27.367Z,22.42
2023-02-11T16:40:21.725Z,18.40
2023-02-11T16:45:16.286Z,21.35
2023-02-11T16:50:11.858Z,21.85
2023-02-11T16:55:06.857Z,21.35
2023-02-11T17:00:00.527Z,23.65
2023-02-11T17:04:54.914Z,19.83
2023-02-11T17:09:48.232Z,17.00
2023-02-11T17:14:41.357Z,20.95
2023-02-11T17:19:34.503Z,15.55
2023-02-11T17:24:27.065Z,18.33
2023-02-11T17:29:23.324Z,22.25
2023-02-11T17:34:17.565Z,18.75
2023-02-11T17:39:11.061Z,21.23
2023-02-11T17:44:04.680Z,17.52
2023-02-11T17:48:59.711Z,26.95
2023-02-11T17:53:54.383Z,24.27
2023-02-11T17:58:48.771Z,33.70
2023-02-11T18:03:41.580Z,25.88
2023-02-11T18:08:35.418Z,31.70
2023-02-11T18:13:28.493Z,24.73
2023-02-11T18:18:21.681Z,24.58
2023-02-11T18:23:15.597Z,16.60
2023-02-11T18:28:09.033Z,23.55
2023-02-11T18:33:02.281Z,23.17
2023-02-11T18:37:56.399Z,18.63
2023-02-11T18:42:49.852Z,22.50
2023-02-11T18:47:43.086Z,22.23
2023-02-11T18:52:38.988Z,33.50
2023-02-11T18:57:33.452Z,39.63
2023-02-11T19:02:26.409Z,32.95
2023-02-11T19:07:19.610Z,26.60
2023-02-11T19:12:13.353Z,27.00
2023-02-11T19:17:08.400Z,20.60
2023-02-11T19:22:02.596Z,24.98
2023-02-11T19:26:59.312Z,24.35
2023-02-11T19:31:52.723Z,21.23
2023-02-11T19:36:46.847Z,23.95
2023-02-11T19:41:40.300Z,23.25
2023-02-11T19:46:36.173Z,21.98
2023-02-11T19:51:34.209Z,17.35
2023-02-11T19:56:28.639Z,20.02
2023-02-11T20:01:24.355Z,17.65
2023-02-11T20:06:24.018Z,20.88
2023-02-11T20:11:18.053Z,19.33
2023-02-11T20:16:19.468Z,24.80
2023-02-11T20:21:23.994Z,18.45
2023-02-11T20:26:31.522Z,19.98
2023-02-11T20:31:25.601Z,16.80
2023-02-11T20:36:20.690Z,14.73
2023-02-11T20:41:22.738Z,20.45
2023-02-11T20:46:18.145Z,16.55
2023-02-11T20:51:19.048Z,16.30
2023-02-11T20:56:13.869Z,14.20
2023-02-11T21:01:11.604Z,20.27
2023-02-11T21:06:04.638Z,16.23
2023-02-11T21:10:59.499Z,12.43
2023-02-11T21:15:56.522Z,14.70
2023-02-11T21:20:50.939Z,15.23
2023-02-11T21:25:44.284Z,13.55
2023-02-11T21:30:41.426Z,16.20
2023-02-11T21:35:36.280Z,12.85
2023-02-11T21:40:29.386Z,15.23
2023-02-11T21:45:22.761Z,13.75
2023-02-11T21:50:16.201Z,15.73
2023-02-11T21:55:10.255Z,12.65
2023-02-11T22:00:03.309Z,11.27
2023-02-11T22:04:58.526Z,12.90
2023-02-11T22:09:55.473Z,17.85
2023-02-11T22:14:49.076Z,14.30
2023-02-11T22:19:42.927Z,10.13
2023-02-11T22:24:37.254Z,9.85
2023-02-11T22:29:30.572Z,9.68
2023-02-11T22:34:24.303Z,11.38
2023-02-11T22:39:18.473Z,10.68
2023-02-11T22:44:11.628Z,12.23
2023-02-11T22:49:06.506Z,10.13
2023-02-11T22:54:00.537Z,9.50
2023-02-11T22:59:13.150Z,8.82
2023-02-11T23:04:08.382Z,9.80
2023-02-11T23:09:04.301Z,8.40
2023-02-11T23:13:56.942Z,10.35
2023-02-11T23:18:50.671Z,9.13
2023-02-11T23:23:43.894Z,10.10
2023-02-11T23:28:37.153Z,8.25
2023-02-11T23:33:31.050Z,10.13
2023-02-11T23:38:23.502Z,8.98
2023-02-11T23:43:17.078Z,11.45
2023-02-11T23:48:10.988Z,9.18
2023-02-11T23:53:04.093Z,7.78
2023-02-11T23:57:57.880Z,8.40
